sensor_id;sensor_type;location;lat;lon;timestamp;P1;durP1;ratioP1;P2;durP2;ratioP2
73023;SDS011;61199;47.526;8.538;2022-10-04T00:01:59;12.13;;;7.37;;
73023;SDS011;61199;47.526;8.538;2022-10-04T00:04:43;14.80;;;8.03;;
73023;SDS011;61199;47.526;8.538;2022-10-04T00:07:20;14.60;;;7.17;;
73023;SDS011;61199;47.526;8.538;2022-10-04T00:14:54;16.13;;;7.97;;
73023;SDS011;61199;47.526;8.538;2022-10-04T00:17:26;18.03;;;7.20;;
73023;SDS011;61199;47.526;8.538;2022-10-04T00:19:57;15.43;;;7.60;;
73023;SDS011;61199;47.526;8.538;2022-10-04T00:22:24;16.70;;;7.50;;
73023;SDS011;61199;47.526;8.538;2022-10-04T00:27:39;14.43;;;8.30;;
73023;SDS011;61199;47.526;8.538;2022-10-04T00:30:33;14.67;;;7.30;;
73023;SDS011;61199;47.526;8.538;2022-10-04T00:33:02;13.13;;;7.40;;
73023;SDS011;61199;47.526;8.538;2022-10-04T00:35:44;20.13;;;7.40;;
73023;SDS011;61199;47.526;8.538;2022-10-04T00:38:14;14.67;;;7.80;;
73023;SDS011;61199;47.526;8.538;2022-10-04T00:40:56;18.13;;;7.17;;
73023;SDS011;61199;47.526;8.538;2022-10-04T00:43:35;10.60;;;7.47;;
73023;SDS011;61199;47.526;8.538;2022-10-04T00:46:11;17.60;;;7.23;;
73023;SDS011;61199;47.526;8.538;2022-10-04T00:48:48;14.03;;;6.60;;
73023;SDS011;61199;47.526;8.538;2022-10-04T00:51:21;13.23;;;7.43;;
73023;SDS011;61199;47.526;8.538;2022-10-04T00:56:48;12.67;;;6.87;;
73023;SDS011;61199;47.526;8.538;2022-10-04T00:59:25;15.13;;;7.80;;
73023;SDS011;61199;47.526;8.538;2022-10-04T01:02:17;16.37;;;7.70;;
73023;SDS011;61199;47.526;8.538;2022-10-04T01:04:57;13.87;;;7.40;;
73023;SDS011;61199;47.526;8.538;2022-10-04T01:07:26;12.50;;;7.30;;
73023;SDS011;61199;47.526;8.538;2022-10-04T01:10:02;13.47;;;7.20;;
73023;SDS011;61199;47.526;8.538;2022-10-04T01:15:24;15.70;;;6.93;;
73023;SDS011;61199;47.526;8.538;2022-10-04T01:18:06;15.37;;;7.67;;
73023;SDS011;61199;47.526;8.538;2022-10-04T01:23:31;15.10;;;6.97;;
73023;SDS011;61199;47.526;8.538;2022-10-04T01:26:02;12.47;;;6.73;;
73023;SDS011;61199;47.526;8.538;2022-10-04T01:28:52;17.10;;;6.77;;
73023;SDS011;61199;47.526;8.538;2022-10-04T01:31:19;15.10;;;8.30;;
73023;SDS011;61199;47.526;8.538;2022-10-04T01:33:46;13.50;;;8.20;;
73023;SDS011;61199;47.526;8.538;2022-10-04T01:36:13;13.27;;;8.60;;
73023;SDS011;61199;47.526;8.538;2022-10-04T01:38:39;14.63;;;6.83;;
73023;SDS011;61199;47.526;8.538;2022-10-04T01:41:06;15.50;;;7.27;;
73023;SDS011;61199;47.526;8.538;2022-10-04T01:43:36;14.73;;;7.30;;
73023;SDS011;61199;47.526;8.538;2022-10-04T01:46:10;14.30;;;7.80;;
73023;SDS011;61199;47.526;8.538;2022-10-04T01:48:40;11.87;;;7.27;;
73023;SDS011;61199;47.526;8.538;2022-10-04T01:51:20;25.87;;;7.40;;
73023;SDS011;61199;47.526;8.538;2022-10-04T01:53:55;12.03;;;7.60;;
73023;SDS011;61199;47.526;8.538;2022-10-04T01:56:33;13.53;;;7.63;;
73023;SDS011;61199;47.526;8.538;2022-10-04T01:59:13;15.30;;;7.40;;
73023;SDS011;61199;47.526;8.538;2022-10-04T02:01:46;15.23;;;7.33;;
73023;SDS011;61199;47.526;8.538;2022-10-04T02:04:27;11.90;;;6.80;;
73023;SDS011;61199;47.526;8.538;2022-10-04T02:06:57;17.33;;;6.77;;
73023;SDS011;61199;47.526;8.538;2022-10-04T02:09:26;13.43;;;7.77;;
73023;SDS011;61199;47.526;8.538;2022-10-04T02:11:57;14.97;;;7.20;;
73023;SDS011;61199;47.526;8.538;2022-10-04T02:14:25;15.67;;;7.90;;
73023;SDS011;61199;47.526;8.538;2022-10-04T02:16:54;13.70;;;7.77;;
73023;SDS011;61199;47.526;8.538;2022-10-04T02:19:25;19.67;;;8.37;;
73023;SDS011;61199;47.526;8.538;2022-10-04T02:22:00;12.83;;;6.70;;
73023;SDS011;61199;47.526;8.538;2022-10-04T02:24:29;10.90;;;7.37;;
73023;SDS011;61199;47.526;8.538;2022-10-04T02:27:00;13.50;;;7.77;;
73023;SDS011;61199;47.526;8.538;2022-10-04T02:29:27;15.73;;;7.73;;
73023;SDS011;61199;47.526;8.538;2022-10-04T02:31:54;15.73;;;7.63;;
73023;SDS011;61199;47.526;8.538;2022-10-04T02:34:39;15.97;;;6.97;;
73023;SDS011;61199;47.526;8.538;2022-10-04T02:37:05;15.10;;;7.73;;
73023;SDS011;61199;47.526;8.538;2022-10-04T02:39:38;14.40;;;6.23;;
73023;SDS011;61199;47.526;8.538;2022-10-04T02:42:56;17.50;;;7.20;;
73023;SDS011;61199;47.526;8.538;2022-10-04T02:45:28;10.10;;;7.23;;
73023;SDS011;61199;47.526;8.538;2022-10-04T02:48:05;12.10;;;7.10;;
73023;SDS011;61199;47.526;8.538;2022-10-04T02:50:46;9.60;;;6.40;;
73023;SDS011;61199;47.526;8.538;2022-10-04T02:55:46;13.47;;;7.00;;
73023;SDS011;61199;47.526;8.538;2022-10-04T02:58:14;9.50;;;6.20;;
73023;SDS011;61199;47.526;8.538;2022-10-04T03:00:46;23.47;;;7.40;;
73023;SDS011;61199;47.526;8.538;2022-10-04T03:03:27;18.40;;;7.40;;
73023;SDS011;61199;47.526;8.538;2022-10-04T03:06:06;14.07;;;7.17;;
73023;SDS011;61199;47.526;8.538;2022-10-04T03:08:36;14.87;;;6.97;;
73023;SDS011;61199;47.526;8.538;2022-10-04T03:11:11;15.33;;;6.80;;
73023;SDS011;61199;47.526;8.538;2022-10-04T03:13:43;13.00;;;8.33;;
73023;SDS011;61199;47.526;8.538;2022-10-04T03:16:12;14.63;;;7.00;;
73023;SDS011;61199;47.526;8.538;2022-10-04T03:18:39;11.90;;;6.87;;
73023;SDS011;61199;47.526;8.538;2022-10-04T03:21:07;16.57;;;7.30;;
73023;SDS011;61199;47.526;8.538;2022-10-04T03:23:37;13.57;;;7.20;;
73023;SDS011;61199;47.526;8.538;2022-10-04T03:28:55;12.70;;;7.80;;
73023;SDS011;61199;47.526;8.538;2022-10-04T03:31:23;12.20;;;8.10;;
73023;SDS011;61199;47.526;8.538;2022-10-04T03:33:53;14.70;;;7.50;;
73023;SDS011;61199;47.526;8.538;2022-10-04T03:36:22;12.50;;;7.50;;
73023;SDS011;61199;47.526;8.538;2022-10-04T03:38:51;15.70;;;8.13;;
73023;SDS011;61199;47.526;8.538;2022-10-04T03:41:20;13.47;;;8.00;;
73023;SDS011;61199;47.526;8.538;2022-10-04T03:43:50;20.40;;;8.77;;
73023;SDS011;61199;47.526;8.538;2022-10-04T03:46:19;15.20;;;7.43;;
73023;SDS011;61199;47.526;8.538;2022-10-04T03:48:49;19.03;;;7.90;;
73023;SDS011;61199;47.526;8.538;2022-10-04T03:51:19;17.43;;;7.60;;
73023;SDS011;61199;47.526;8.538;2022-10-04T03:53:51;15.97;;;8.50;;
73023;SDS011;61199;47.526;8.538;2022-10-04T03:56:23;17.10;;;8.20;;
73023;SDS011;61199;47.526;8.538;2022-10-04T03:58:52;16.17;;;7.53;;
73023;SDS011;61199;47.526;8.538;2022-10-04T04:01:36;16.60;;;8.27;;
73023;SDS011;61199;47.526;8.538;2022-10-04T04:06:50;13.67;;;8.00;;
73023;SDS011;61199;47.526;8.538;2022-10-04T04:12:28;18.20;;;7.63;;
73023;SDS011;61199;47.526;8.538;2022-10-04T04:15:03;14.73;;;7.40;;
73023;SDS011;61199;47.526;8.538;2022-10-04T04:17:36;21.93;;;9.43;;
73023;SDS011;61199;47.526;8.538;2022-10-04T04:20:24;18.67;;;9.27;;
73023;SDS011;61199;47.526;8.538;2022-10-04T04:23:01;20.90;;;9.03;;
73023;SDS011;61199;47.526;8.538;2022-10-04T04:25:30;19.50;;;8.87;;
73023;SDS011;61199;47.526;8.538;2022-10-04T04:28:00;18.20;;;9.00;;
73023;SDS011;61199;47.526;8.538;2022-10-04T04:30:30;15.40;;;9.17;;
73023;SDS011;61199;47.526;8.538;2022-10-04T04:33:02;23.03;;;8.97;;
73023;SDS011;61199;47.526;8.538;2022-10-04T04:35:35;18.20;;;8.60;;
73023;SDS011;61199;47.526;8.538;2022-10-04T04:38:21;23.93;;;9.10;;
73023;SDS011;61199;47.526;8.538;2022-10-04T04:40:49;16.40;;;8.87;;
73023;SDS011;61199;47.526;8.538;2022-10-04T04:43:20;13.47;;;7.80;;
73023;SDS011;61199;47.526;8.538;2022-10-04T04:45:51;16.40;;;8.60;;
73023;SDS011;61199;47.526;8.538;2022-10-04T04:48:42;17.20;;;8.70;;
73023;SDS011;61199;47.526;8.538;2022-10-04T04:51:11;18.33;;;9.93;;
73023;SDS011;61199;47.526;8.538;2022-10-04T04:53:44;14.27;;;8.13;;
73023;SDS011;61199;47.526;8.538;2022-10-04T04:56:12;24.90;;;9.27;;
73023;SDS011;61199;47.526;8.538;2022-10-04T04:58:44;14.93;;;8.63;;
73023;SDS011;61199;47.526;8.538;2022-10-04T05:06:39;15.13;;;8.70;;
73023;SDS011;61199;47.526;8.538;2022-10-04T05:09:23;21.93;;;9.50;;
73023;SDS011;61199;47.526;8.538;2022-10-04T05:12:12;16.57;;;9.10;;
73023;SDS011;61199;47.526;8.538;2022-10-04T05:14:45;19.00;;;9.50;;
73023;SDS011;61199;47.526;8.538;2022-10-04T05:17:19;22.03;;;9.97;;
73023;SDS011;61199;47.526;8.538;2022-10-04T05:19:49;28.23;;;10.50;;
73023;SDS011;61199;47.526;8.538;2022-10-04T05:22:19;19.67;;;10.77;;
73023;SDS011;61199;47.526;8.538;2022-10-04T05:24:59;26.93;;;11.47;;
73023;SDS011;61199;47.526;8.538;2022-10-04T05:27:31;26.30;;;10.80;;
73023;SDS011;61199;47.526;8.538;2022-10-04T05:33:00;29.10;;;13.87;;
73023;SDS011;61199;47.526;8.538;2022-10-04T05:35:37;26.27;;;13.30;;
73023;SDS011;61199;47.526;8.538;2022-10-04T05:38:25;37.70;;;13.17;;
73023;SDS011;61199;47.526;8.538;2022-10-04T05:43:58;29.87;;;12.43;;
73023;SDS011;61199;47.526;8.538;2022-10-04T05:46:30;27.77;;;13.03;;
73023;SDS011;61199;47.526;8.538;2022-10-04T05:49:07;28.80;;;13.80;;
73023;SDS011;61199;47.526;8.538;2022-10-04T05:51:54;26.87;;;12.70;;
73023;SDS011;61199;47.526;8.538;2022-10-04T05:54:26;28.27;;;13.80;;
73023;SDS011;61199;47.526;8.538;2022-10-04T05:57:06;31.20;;;13.80;;
73023;SDS011;61199;47.526;8.538;2022-10-04T06:02:54;24.40;;;10.43;;
73023;SDS011;61199;47.526;8.538;2022-10-04T06:05:53;29.43;;;11.43;;
73023;SDS011;61199;47.526;8.538;2022-10-04T06:11:04;31.10;;;11.20;;
73023;SDS011;61199;47.526;8.538;2022-10-04T06:22:59;31.97;;;11.57;;
73023;SDS011;61199;47.526;8.538;2022-10-04T06:25:28;32.50;;;11.97;;
73023;SDS011;61199;47.526;8.538;2022-10-04T06:30:53;33.40;;;12.37;;
73023;SDS011;61199;47.526;8.538;2022-10-04T06:33:50;33.13;;;11.80;;
73023;SDS011;61199;47.526;8.538;2022-10-04T06:42:20;24.60;;;11.80;;
73023;SDS011;61199;47.526;8.538;2022-10-04T06:45:14;39.63;;;12.47;;
73023;SDS011;61199;47.526;8.538;2022-10-04T06:48:17;28.43;;;11.97;;
73023;SDS011;61199;47.526;8.538;2022-10-04T06:53:52;32.30;;;13.77;;
73023;SDS011;61199;47.526;8.538;2022-10-04T06:59:31;35.23;;;13.97;;
73023;SDS011;61199;47.526;8.538;2022-10-04T07:02:13;34.07;;;14.33;;
73023;SDS011;61199;47.526;8.538;2022-10-04T07:04:49;27.63;;;12.60;;
73023;SDS011;61199;47.526;8.538;2022-10-04T07:07:34;34.50;;;14.53;;
73023;SDS011;61199;47.526;8.538;2022-10-04T07:12:42;29.13;;;14.17;;
73023;SDS011;61199;47.526;8.538;2022-10-04T07:15:15;27.33;;;14.27;;
73023;SDS011;61199;47.526;8.538;2022-10-04T07:17:46;25.57;;;11.70;;
73023;SDS011;61199;47.526;8.538;2022-10-04T07:20:24;28.13;;;13.40;;
73023;SDS011;61199;47.526;8.538;2022-10-04T07:22:57;23.27;;;12.77;;
73023;SDS011;61199;47.526;8.538;2022-10-04T07:25:32;22.03;;;11.73;;
73023;SDS011;61199;47.526;8.538;2022-10-04T07:33:46;24.37;;;12.03;;
73023;SDS011;61199;47.526;8.538;2022-10-04T07:36:20;24.67;;;13.10;;
73023;SDS011;61199;47.526;8.538;2022-10-04T07:38:55;22.43;;;11.03;;
73023;SDS011;61199;47.526;8.538;2022-10-04T07:41:30;17.93;;;10.97;;
73023;SDS011;61199;47.526;8.538;2022-10-04T07:44:01;23.87;;;11.23;;
73023;SDS011;61199;47.526;8.538;2022-10-04T07:49:14;19.73;;;11.77;;
73023;SDS011;61199;47.526;8.538;2022-10-04T07:51:43;23.83;;;12.30;;
73023;SDS011;61199;47.526;8.538;2022-10-04T07:54:38;23.73;;;11.60;;
73023;SDS011;61199;47.526;8.538;2022-10-04T07:57:12;21.37;;;11.07;;
73023;SDS011;61199;47.526;8.538;2022-10-04T08:00:03;20.43;;;10.73;;
73023;SDS011;61199;47.526;8.538;2022-10-04T08:05:49;21.80;;;12.73;;
73023;SDS011;61199;47.526;8.538;2022-10-04T08:34:44;18.40;;;10.93;;
73023;SDS011;61199;47.526;8.538;2022-10-04T08:49:02;18.27;;;11.00;;
73023;SDS011;61199;47.526;8.538;2022-10-04T08:54:49;18.70;;;12.03;;
73023;SDS011;61199;47.526;8.538;2022-10-04T08:57:54;19.40;;;11.33;;
73023;SDS011;61199;47.526;8.538;2022-10-04T09:00:33;19.80;;;10.43;;
73023;SDS011;61199;47.526;8.538;2022-10-04T09:09:30;17.77;;;11.73;;
73023;SDS011;61199;47.526;8.538;2022-10-04T09:12:16;21.10;;;12.07;;
73023;SDS011;61199;47.526;8.538;2022-10-04T09:20:19;20.90;;;11.70;;
73023;SDS011;61199;47.526;8.538;2022-10-04T09:25:58;25.83;;;13.40;;
73023;SDS011;61199;47.526;8.538;2022-10-04T09:29:04;19.57;;;11.80;;
73023;SDS011;61199;47.526;8.538;2022-10-04T09:34:27;18.33;;;11.47;;
73023;SDS011;61199;47.526;8.538;2022-10-04T09:45:51;49.60;;;20.77;;
73023;SDS011;61199;47.526;8.538;2022-10-04T09:51:53;17.70;;;10.47;;
73023;SDS011;61199;47.526;8.538;2022-10-04T09:57:27;27.83;;;14.00;;
73023;SDS011;61199;47.526;8.538;2022-10-04T10:00:12;20.67;;;11.17;;
73023;SDS011;61199;47.526;8.538;2022-10-04T10:25:43;19.40;;;10.43;;
73023;SDS011;61199;47.526;8.538;2022-10-04T10:36:45;18.03;;;11.03;;
73023;SDS011;61199;47.526;8.538;2022-10-04T10:50:23;16.00;;;9.77;;
73023;SDS011;61199;47.526;8.538;2022-10-04T10:53:36;17.60;;;10.80;;
73023;SDS011;61199;47.526;8.538;2022-10-04T11:27:03;13.97;;;8.63;;
73023;SDS011;61199;47.526;8.538;2022-10-04T11:35:57;15.60;;;8.40;;
73023;SDS011;61199;47.526;8.538;2022-10-04T11:38:50;14.30;;;8.93;;
73023;SDS011;61199;47.526;8.538;2022-10-04T11:56:30;15.63;;;7.50;;
73023;SDS011;61199;47.526;8.538;2022-10-04T12:04:49;12.73;;;7.70;;
73023;SDS011;61199;47.526;8.538;2022-10-04T12:07:37;13.07;;;7.83;;
73023;SDS011;61199;47.526;8.538;2022-10-04T12:10:34;13.50;;;7.10;;
73023;SDS011;61199;47.526;8.538;2022-10-04T12:24:50;14.27;;;9.03;;
73023;SDS011;61199;47.526;8.538;2022-10-04T12:46:44;15.90;;;10.23;;
73023;SDS011;61199;47.526;8.538;2022-10-04T12:52:19;18.73;;;9.00;;
73023;SDS011;61199;47.526;8.538;2022-10-04T12:55:01;13.57;;;9.97;;
73023;SDS011;61199;47.526;8.538;2022-10-04T13:00:41;14.50;;;11.10;;
73023;SDS011;61199;47.526;8.538;2022-10-04T13:06:14;15.60;;;10.20;;
73023;SDS011;61199;47.526;8.538;2022-10-04T13:08:54;13.70;;;9.30;;
73023;SDS011;61199;47.526;8.538;2022-10-04T13:17:53;15.47;;;10.77;;
73023;SDS011;61199;47.526;8.538;2022-10-04T13:20:37;14.00;;;10.00;;
73023;SDS011;61199;47.526;8.538;2022-10-04T13:23:12;18.87;;;10.17;;
73023;SDS011;61199;47.526;8.538;2022-10-04T13:28:38;10.00;;;7.57;;
73023;SDS011;61199;47.526;8.538;2022-10-04T13:31:23;12.00;;;8.80;;
73023;SDS011;61199;47.526;8.538;2022-10-04T13:37:05;11.67;;;8.50;;
73023;SDS011;61199;47.526;8.538;2022-10-04T13:48:24;13.10;;;8.20;;
73023;SDS011;61199;47.526;8.538;2022-10-04T13:51:14;16.20;;;9.70;;
73023;SDS011;61199;47.526;8.538;2022-10-04T13:57:02;11.20;;;8.20;;
73023;SDS011;61199;47.526;8.538;2022-10-04T14:10:54;11.03;;;7.97;;
73023;SDS011;61199;47.526;8.538;2022-10-04T14:14:06;14.30;;;8.83;;
73023;SDS011;61199;47.526;8.538;2022-10-04T14:19:31;12.63;;;7.73;;
73023;SDS011;61199;47.526;8.538;2022-10-04T14:22:06;11.93;;;7.00;;
73023;SDS011;61199;47.526;8.538;2022-10-04T14:36:41;15.13;;;8.80;;
73023;SDS011;61199;47.526;8.538;2022-10-04T14:39:20;9.07;;;6.93;;
73023;SDS011;61199;47.526;8.538;2022-10-04T14:41:56;12.93;;;7.67;;
73023;SDS011;61199;47.526;8.538;2022-10-04T14:45:00;15.73;;;7.90;;
73023;SDS011;61199;47.526;8.538;2022-10-04T14:50:45;11.97;;;8.60;;
73023;SDS011;61199;47.526;8.538;2022-10-04T15:04:59;15.13;;;8.90;;
73023;SDS011;61199;47.526;8.538;2022-10-04T15:07:49;14.73;;;8.33;;
73023;SDS011;61199;47.526;8.538;2022-10-04T15:10:35;8.57;;;6.37;;
73023;SDS011;61199;47.526;8.538;2022-10-04T15:13:21;17.40;;;8.20;;
73023;SDS011;61199;47.526;8.538;2022-10-04T15:15:59;12.60;;;7.50;;
73023;SDS011;61199;47.526;8.538;2022-10-04T15:21:45;14.93;;;7.23;;
73023;SDS011;61199;47.526;8.538;2022-10-04T15:30:16;15.70;;;8.70;;
73023;SDS011;61199;47.526;8.538;2022-10-04T15:32:49;12.33;;;8.10;;
73023;SDS011;61199;47.526;8.538;2022-10-04T15:41:18;9.23;;;6.47;;
73023;SDS011;61199;47.526;8.538;2022-10-04T15:49:18;15.77;;;8.17;;
73023;SDS011;61199;47.526;8.538;2022-10-04T16:00:12;8.57;;;6.20;;
73023;SDS011;61199;47.526;8.538;2022-10-04T16:08:35;10.80;;;6.97;;
73023;SDS011;61199;47.526;8.538;2022-10-04T16:14:03;9.53;;;5.70;;
73023;SDS011;61199;47.526;8.538;2022-10-04T16:19:54;10.53;;;5.93;;
73023;SDS011;61199;47.526;8.538;2022-10-04T16:22:42;9.47;;;6.23;;
73023;SDS011;61199;47.526;8.538;2022-10-04T16:25:49;9.83;;;7.40;;
73023;SDS011;61199;47.526;8.538;2022-10-04T16:28:29;11.70;;;6.73;;
73023;SDS011;61199;47.526;8.538;2022-10-04T16:33:54;12.33;;;8.03;;
73023;SDS011;61199;47.526;8.538;2022-10-04T16:36:43;10.83;;;6.60;;
73023;SDS011;61199;47.526;8.538;2022-10-04T16:39:32;14.60;;;6.57;;
73023;SDS011;61199;47.526;8.538;2022-10-04T16:42:25;13.20;;;6.93;;
73023;SDS011;61199;47.526;8.538;2022-10-04T16:54:03;9.13;;;6.53;;
73023;SDS011;61199;47.526;8.538;2022-10-04T17:07:12;11.67;;;5.40;;
73023;SDS011;61199;47.526;8.538;2022-10-04T17:12:25;8.30;;;5.37;;
73023;SDS011;61199;47.526;8.538;2022-10-04T17:18:24;10.70;;;5.60;;
73023;SDS011;61199;47.526;8.538;2022-10-04T17:20:58;9.87;;;5.97;;
73023;SDS011;61199;47.526;8.538;2022-10-04T17:29:22;10.87;;;6.10;;
73023;SDS011;61199;47.526;8.538;2022-10-04T17:32:07;9.30;;;5.37;;
73023;SDS011;61199;47.526;8.538;2022-10-04T17:38:08;11.67;;;5.40;;
73023;SDS011;61199;47.526;8.538;2022-10-04T17:43:31;10.30;;;6.73;;
73023;SDS011;61199;47.526;8.538;2022-10-04T17:46:15;14.13;;;6.60;;
73023;SDS011;61199;47.526;8.538;2022-10-04T17:48:57;12.37;;;6.70;;
73023;SDS011;61199;47.526;8.538;2022-10-04T17:51:49;10.70;;;6.67;;
73023;SDS011;61199;47.526;8.538;2022-10-04T18:05:03;13.30;;;6.87;;
73023;SDS011;61199;47.526;8.538;2022-10-04T18:07:42;11.70;;;6.90;;
73023;SDS011;61199;47.526;8.538;2022-10-04T18:10:32;11.03;;;8.33;;
73023;SDS011;61199;47.526;8.538;2022-10-04T18:13:13;12.43;;;6.83;;
73023;SDS011;61199;47.526;8.538;2022-10-04T18:15:43;14.17;;;7.63;;
73023;SDS011;61199;47.526;8.538;2022-10-04T18:18:23;11.60;;;7.00;;
73023;SDS011;61199;47.526;8.538;2022-10-04T18:21:00;12.90;;;7.37;;
73023;SDS011;61199;47.526;8.538;2022-10-04T18:23:31;11.33;;;8.13;;
73023;SDS011;61199;47.526;8.538;2022-10-04T18:26:04;13.27;;;8.17;;
73023;SDS011;61199;47.526;8.538;2022-10-04T18:28:35;15.30;;;8.20;;
73023;SDS011;61199;47.526;8.538;2022-10-04T18:33:55;30.30;;;18.03;;
73023;SDS011;61199;47.526;8.538;2022-10-04T18:36:27;25.77;;;12.90;;
73023;SDS011;61199;47.526;8.538;2022-10-04T18:38:59;14.17;;;8.40;;
73023;SDS011;61199;47.526;8.538;2022-10-04T18:41:54;18.03;;;11.27;;
73023;SDS011;61199;47.526;8.538;2022-10-04T18:44:28;26.70;;;14.90;;
73023;SDS011;61199;47.526;8.538;2022-10-04T18:47:17;26.90;;;16.43;;
73023;SDS011;61199;47.526;8.538;2022-10-04T18:49:51;24.43;;;12.30;;
73023;SDS011;61199;47.526;8.538;2022-10-04T18:52:22;22.60;;;15.20;;
73023;SDS011;61199;47.526;8.538;2022-10-04T18:55:03;19.87;;;12.93;;
73023;SDS011;61199;47.526;8.538;2022-10-04T19:00:32;15.30;;;9.00;;
73023;SDS011;61199;47.526;8.538;2022-10-04T19:04:15;14.03;;;8.20;;
73023;SDS011;61199;47.526;8.538;2022-10-04T19:06:42;11.27;;;8.23;;
73023;SDS011;61199;47.526;8.538;2022-10-04T19:11:51;13.57;;;9.53;;
73023;SDS011;61199;47.526;8.538;2022-10-04T19:17:32;15.10;;;10.83;;
73023;SDS011;61199;47.526;8.538;2022-10-04T19:20:22;27.07;;;15.50;;
73023;SDS011;61199;47.526;8.538;2022-10-04T19:25:46;20.27;;;13.00;;
73023;SDS011;61199;47.526;8.538;2022-10-04T19:28:36;21.80;;;12.20;;
73023;SDS011;61199;47.526;8.538;2022-10-04T19:39:56;20.03;;;10.27;;
73023;SDS011;61199;47.526;8.538;2022-10-04T19:42:47;17.17;;;10.13;;
73023;SDS011;61199;47.526;8.538;2022-10-04T19:45:28;16.30;;;10.00;;
73023;SDS011;61199;47.526;8.538;2022-10-04T19:48:22;18.53;;;10.63;;
73023;SDS011;61199;47.526;8.538;2022-10-04T19:50:52;21.73;;;10.47;;
73023;SDS011;61199;47.526;8.538;2022-10-04T19:53:34;25.87;;;13.03;;
73023;SDS011;61199;47.526;8.538;2022-10-04T19:56:07;19.53;;;11.87;;
73023;SDS011;61199;47.526;8.538;2022-10-04T20:01:38;12.47;;;9.43;;
73023;SDS011;61199;47.526;8.538;2022-10-04T20:04:14;15.47;;;9.40;;
73023;SDS011;61199;47.526;8.538;2022-10-04T20:07:01;19.23;;;10.20;;
73023;SDS011;61199;47.526;8.538;2022-10-04T20:12:33;17.93;;;9.77;;
73023;SDS011;61199;47.526;8.538;2022-10-04T20:17:44;14.37;;;9.63;;
73023;SDS011;61199;47.526;8.538;2022-10-04T20:20:13;12.67;;;8.33;;
73023;SDS011;61199;47.526;8.538;2022-10-04T20:23:52;18.43;;;9.13;;
73023;SDS011;61199;47.526;8.538;2022-10-04T20:26:33;13.83;;;8.43;;
73023;SDS011;61199;47.526;8.538;2022-10-04T20:32:06;15.50;;;9.10;;
73023;SDS011;61199;47.526;8.538;2022-10-04T20:37:15;13.30;;;8.83;;
73023;SDS011;61199;47.526;8.538;2022-10-04T20:53:26;16.50;;;10.33;;
73023;SDS011;61199;47.526;8.538;2022-10-04T20:58:41;15.23;;;9.20;;
73023;SDS011;61199;47.526;8.538;2022-10-04T21:04:20;14.97;;;9.27;;
73023;SDS011;61199;47.526;8.538;2022-10-04T21:07:11;16.00;;;8.70;;
73023;SDS011;61199;47.526;8.538;2022-10-04T21:09:45;15.33;;;8.90;;
73023;SDS011;61199;47.526;8.538;2022-10-04T21:12:26;14.93;;;8.60;;
73023;SDS011;61199;47.526;8.538;2022-10-04T21:17:42;18.50;;;10.03;;
73023;SDS011;61199;47.526;8.538;2022-10-04T21:23:24;18.57;;;10.00;;
73023;SDS011;61199;47.526;8.538;2022-10-04T21:28:54;22.13;;;9.67;;
73023;SDS011;61199;47.526;8.538;2022-10-04T21:31:26;16.90;;;10.37;;
73023;SDS011;61199;47.526;8.538;2022-10-04T21:33:53;20.20;;;10.73;;
73023;SDS011;61199;47.526;8.538;2022-10-04T21:36:22;14.17;;;10.13;;
73023;SDS011;61199;47.526;8.538;2022-10-04T21:38:49;16.47;;;10.67;;
73023;SDS011;61199;47.526;8.538;2022-10-04T21:41:15;17.90;;;10.20;;
73023;SDS011;61199;47.526;8.538;2022-10-04T21:43:42;15.63;;;10.07;;
73023;SDS011;61199;47.526;8.538;2022-10-04T21:46:08;14.97;;;9.73;;
73023;SDS011;61199;47.526;8.538;2022-10-04T21:48:35;16.30;;;10.00;;
73023;SDS011;61199;47.526;8.538;2022-10-04T21:51:02;15.80;;;10.80;;
73023;SDS011;61199;47.526;8.538;2022-10-04T21:53:28;17.73;;;10.70;;
73023;SDS011;61199;47.526;8.538;2022-10-04T21:55:55;23.53;;;11.00;;
73023;SDS011;61199;47.526;8.538;2022-10-04T21:58:21;16.63;;;10.70;;
73023;SDS011;61199;47.526;8.538;2022-10-04T22:00:47;17.87;;;11.27;;
73023;SDS011;61199;47.526;8.538;2022-10-04T22:03:14;15.00;;;10.50;;
73023;SDS011;61199;47.526;8.538;2022-10-04T22:05:40;20.50;;;11.47;;
73023;SDS011;61199;47.526;8.538;2022-10-04T22:08:06;20.00;;;10.70;;
73023;SDS011;61199;47.526;8.538;2022-10-04T22:10:33;18.60;;;10.83;;
73023;SDS011;61199;47.526;8.538;2022-10-04T22:12:59;19.30;;;10.80;;
73023;SDS011;61199;47.526;8.538;2022-10-04T22:15:26;17.40;;;10.40;;
73023;SDS011;61199;47.526;8.538;2022-10-04T22:17:53;19.73;;;11.10;;
73023;SDS011;61199;47.526;8.538;2022-10-04T22:20:20;16.17;;;9.53;;
73023;SDS011;61199;47.526;8.538;2022-10-04T22:22:47;19.60;;;9.20;;
73023;SDS011;61199;47.526;8.538;2022-10-04T22:25:14;15.47;;;10.70;;
73023;SDS011;61199;47.526;8.538;2022-10-04T22:27:42;15.37;;;9.80;;
73023;SDS011;61199;47.526;8.538;2022-10-04T22:30:23;15.20;;;9.30;;
73023;SDS011;61199;47.526;8.538;2022-10-04T22:32:52;23.63;;;11.60;;
73023;SDS011;61199;47.526;8.538;2022-10-04T22:35:20;15.37;;;10.50;;
73023;SDS011;61199;47.526;8.538;2022-10-04T22:37:47;16.53;;;9.40;;
73023;SDS011;61199;47.526;8.538;2022-10-04T22:40:18;13.07;;;9.47;;
73023;SDS011;61199;47.526;8.538;2022-10-04T22:42:53;15.93;;;10.43;;
73023;SDS011;61199;47.526;8.538;2022-10-04T22:45:22;22.80;;;10.70;;
73023;SDS011;61199;47.526;8.538;2022-10-04T22:47:51;18.30;;;9.67;;
73023;SDS011;61199;47.526;8.538;2022-10-04T22:50:22;13.30;;;9.33;;
73023;SDS011;61199;47.526;8.538;2022-10-04T22:52:53;15.07;;;9.33;;
73023;SDS011;61199;47.526;8.538;2022-10-04T22:55:19;16.70;;;9.40;;
73023;SDS011;61199;47.526;8.538;2022-10-04T22:57:46;12.73;;;8.50;;
73023;SDS011;61199;47.526;8.538;2022-10-04T23:00:12;18.53;;;9.97;;
73023;SDS011;61199;47.526;8.538;2022-10-04T23:02:39;20.17;;;9.60;;
73023;SDS011;61199;47.526;8.538;2022-10-04T23:05:12;15.00;;;10.17;;
73023;SDS011;61199;47.526;8.538;2022-10-04T23:07:41;13.43;;;9.90;;
73023;SDS011;61199;47.526;8.538;2022-10-04T23:10:09;19.03;;;10.70;;
73023;SDS011;61199;47.526;8.538;2022-10-04T23:12:38;14.27;;;9.70;;
73023;SDS011;61199;47.526;8.538;2022-10-04T23:15:05;15.70;;;9.80;;
73023;SDS011;61199;47.526;8.538;2022-10-04T23:17:37;13.80;;;9.20;;
73023;SDS011;61199;47.526;8.538;2022-10-04T23:22:33;14.50;;;9.77;;
73023;SDS011;61199;47.526;8.538;2022-10-04T23:25:00;17.07;;;9.23;;
73023;SDS011;61199;47.526;8.538;2022-10-04T23:27:27;22.93;;;10.10;;
73023;SDS011;61199;47.526;8.538;2022-10-04T23:29:56;18.07;;;10.20;;
73023;SDS011;61199;47.526;8.538;2022-10-04T23:32:25;19.43;;;8.97;;
73023;SDS011;61199;47.526;8.538;2022-10-04T23:34:52;22.80;;;9.10;;
73023;SDS011;61199;47.526;8.538;2022-10-04T23:37:23;15.87;;;8.60;;
73023;SDS011;61199;47.526;8.538;2022-10-04T23:39:51;18.30;;;9.97;;
73023;SDS011;61199;47.526;8.538;2022-10-04T23:42:19;14.60;;;10.10;;
73023;SDS011;61199;47.526;8.538;2022-10-04T23:44:57;16.23;;;9.70;;
73023;SDS011;61199;47.526;8.538;2022-10-04T23:47:32;11.93;;;8.33;;
73023;SDS011;61199;47.526;8.538;2022-10-04T23:50:01;11.53;;;8.20;;
73023;SDS011;61199;47.526;8.538;2022-10-04T23:52:44;14.83;;;9.27;;
73023;SDS011;61199;47.526;8.538;2022-10-04T23:55:15;16.20;;;8.80;;
73023;SDS011;61199;47.526;8.538;2022-10-04T23:57:44;13.60;;;8.50;;
